Terminal Aerodrome Forecast
Issued by NWS

Home | Current Version | Previous Version | Text Only | Print | Product List | Glossary On
Versions: 1 2 3 4 5 6 7 8 9 10 11 12 13 14 15 16 17 18
000
FTUS43 KILX 050528
TAFCMI
TAF
KCMI 050528Z 0506/0606 12005KT P6SM SCT120
     FM051000 VRB03KT 4SM BR SCT250
     FM051400 18006KT P6SM SCT150
     FM060000 14005KT P6SM SCT250=

USA.gov is the U.S. government's official web portal to all federal, state and local government web resources and services.